Princeton, Oregon
Current Conditions -  °F | °C
As of 12:53 AM on Wednesday 22 Oct 2014 (Local Time) from KBNO Reporting Station
Clear Clear  
Wind Chill: 30°   Ceiling: Unl
Heat Index: 30°   Visibility: 10mi
Dew Point: 27°   Wind: 3mph
Humidity: 88%   Direction: 200°SSW
Pressure: 30.07"   Gusts: NA
Location:  43.25°N, 118.58°W
Report Text: KBNO 220753Z AUTO 20003KT 10SM CLR M01/M03 A3007 RMK AO2 SLP188 T10111028 401281028
Loading
Personal Weather Stations






























Interactive Weather Map
Tropical Storm Tracking
New forecast layout! Learn more

10-Day Weather Forecast

Advertisements
Track Severe Weather on mobile